sensor_id;sensor_type;location;lat;lon;timestamp;pressure;altitude;pressure_sealevel;temperature;humidity
6942;BME280;3510;43.200;27.920;2022-12-29T00:02:02;102353.00;;;9.97;48.13
6942;BME280;3510;43.200;27.920;2022-12-29T00:04:29;102351.97;;;9.58;49.03
6942;BME280;3510;43.200;27.920;2022-12-29T00:06:55;102346.38;;;9.98;48.62
6942;BME280;3510;43.200;27.920;2022-12-29T00:09:22;102350.03;;;9.78;48.46
6942;BME280;3510;43.200;27.920;2022-12-29T00:11:49;102345.97;;;9.27;49.49
6942;BME280;3510;43.200;27.920;2022-12-29T00:14:16;102342.38;;;9.69;48.63
6942;BME280;3510;43.200;27.920;2022-12-29T00:17:02;102343.22;;;9.40;49.42
6942;BME280;3510;43.200;27.920;2022-12-29T00:19:29;102347.25;;;9.68;48.78
6942;BME280;3510;43.200;27.920;2022-12-29T00:22:13;102340.97;;;9.64;48.22
6942;BME280;3510;43.200;27.920;2022-12-29T00:24:57;102344.63;;;9.45;48.79
6942;BME280;3510;43.200;27.920;2022-12-29T00:27:41;102349.31;;;9.86;48.24
6942;BME280;3510;43.200;27.920;2022-12-29T00:30:25;102349.97;;;9.92;47.99
6942;BME280;3510;43.200;27.920;2022-12-29T00:33:11;102351.19;;;9.66;48.62
6942;BME280;3510;43.200;27.920;2022-12-29T00:35:56;102348.56;;;9.87;48.32
6942;BME280;3510;43.200;27.920;2022-12-29T00:38:23;102336.25;;;9.75;48.70
6942;BME280;3510;43.200;27.920;2022-12-29T00:41:07;102337.78;;;9.88;48.59
6942;BME280;3510;43.200;27.920;2022-12-29T00:43:51;102342.03;;;9.97;48.09
6942;BME280;3510;43.200;27.920;2022-12-29T00:46:35;102337.75;;;9.96;48.83
6942;BME280;3510;43.200;27.920;2022-12-29T00:49:04;102332.81;;;10.34;47.38
6942;BME280;3510;43.200;27.920;2022-12-29T00:51:48;102330.06;;;10.17;48.11
6942;BME280;3510;43.200;27.920;2022-12-29T00:54:15;102330.94;;;10.48;47.63
6942;BME280;3510;43.200;27.920;2022-12-29T00:56:42;102317.56;;;10.56;47.08
6942;BME280;3510;43.200;27.920;2022-12-29T00:59:09;102321.66;;;10.39;47.69
6942;BME280;3510;43.200;27.920;2022-12-29T01:01:36;102326.09;;;10.19;48.18
6942;BME280;3510;43.200;27.920;2022-12-29T01:04:05;102321.88;;;10.34;48.07
6942;BME280;3510;43.200;27.920;2022-12-29T01:06:32;102313.78;;;10.36;48.31
6942;BME280;3510;43.200;27.920;2022-12-29T01:08:59;102311.13;;;10.51;47.37
6942;BME280;3510;43.200;27.920;2022-12-29T01:11:43;102302.59;;;10.11;47.95
6942;BME280;3510;43.200;27.920;2022-12-29T01:14:10;102302.97;;;10.37;47.60
6942;BME280;3510;43.200;27.920;2022-12-29T01:16:39;102299.56;;;10.37;47.41
6942;BME280;3510;43.200;27.920;2022-12-29T01:19:07;102306.38;;;9.85;48.57
6942;BME280;3510;43.200;27.920;2022-12-29T01:21:34;102293.31;;;10.03;48.21
6942;BME280;3510;43.200;27.920;2022-12-29T01:24:01;102287.59;;;9.97;48.60
6942;BME280;3510;43.200;27.920;2022-12-29T01:26:29;102285.28;;;10.22;47.71
6942;BME280;3510;43.200;27.920;2022-12-29T01:28:56;102285.56;;;9.79;48.31
6942;BME280;3510;43.200;27.920;2022-12-29T01:31:23;102284.56;;;9.39;50.19
6942;BME280;3510;43.200;27.920;2022-12-29T01:33:50;102274.44;;;9.54;49.92
6942;BME280;3510;43.200;27.920;2022-12-29T01:36:18;102283.34;;;9.66;49.24
6942;BME280;3510;43.200;27.920;2022-12-29T01:38:45;102277.53;;;9.74;49.33
6942;BME280;3510;43.200;27.920;2022-12-29T01:41:12;102253.22;;;9.82;49.45
6942;BME280;3510;43.200;27.920;2022-12-29T01:43:40;102260.06;;;9.08;50.84
6942;BME280;3510;43.200;27.920;2022-12-29T01:46:11;102253.06;;;9.20;51.13
6942;BME280;3510;43.200;27.920;2022-12-29T01:48:40;102240.28;;;9.86;48.93
6942;BME280;3510;43.200;27.920;2022-12-29T01:51:07;102247.91;;;9.41;50.37
6942;BME280;3510;43.200;27.920;2022-12-29T01:53:36;102242.41;;;9.60;49.44
6942;BME280;3510;43.200;27.920;2022-12-29T01:56:03;102234.47;;;9.41;50.38
6942;BME280;3510;43.200;27.920;2022-12-29T01:58:32;102231.09;;;9.33;51.34
6942;BME280;3510;43.200;27.920;2022-12-29T02:01:00;102223.84;;;9.97;49.62
6942;BME280;3510;43.200;27.920;2022-12-29T02:03:27;102224.19;;;10.00;48.82
6942;BME280;3510;43.200;27.920;2022-12-29T02:05:57;102221.78;;;9.85;49.26
6942;BME280;3510;43.200;27.920;2022-12-29T02:08:26;102222.81;;;9.72;50.10
6942;BME280;3510;43.200;27.920;2022-12-29T02:10:56;102222.13;;;9.88;49.30
6942;BME280;3510;43.200;27.920;2022-12-29T02:13:23;102218.13;;;9.98;49.80
6942;BME280;3510;43.200;27.920;2022-12-29T02:15:53;102224.47;;;9.27;51.74
6942;BME280;3510;43.200;27.920;2022-12-29T02:18:26;102219.94;;;9.91;49.76
6942;BME280;3510;43.200;27.920;2022-12-29T02:21:07;102220.44;;;9.96;50.35
6942;BME280;3510;43.200;27.920;2022-12-29T02:23:49;102216.09;;;10.02;50.11
6942;BME280;3510;43.200;27.920;2022-12-29T02:26:29;102223.69;;;9.72;50.24
6942;BME280;3510;43.200;27.920;2022-12-29T02:31:45;102211.84;;;10.17;50.55
6942;BME280;3510;43.200;27.920;2022-12-29T02:34:16;102208.16;;;10.29;49.81
6942;BME280;3510;43.200;27.920;2022-12-29T02:36:49;102212.75;;;9.94;50.75
6942;BME280;3510;43.200;27.920;2022-12-29T02:39:23;102204.84;;;10.14;49.08
6942;BME280;3510;43.200;27.920;2022-12-29T02:41:56;102202.06;;;10.27;49.33
6942;BME280;3510;43.200;27.920;2022-12-29T02:44:27;102191.53;;;10.54;48.65
6942;BME280;3510;43.200;27.920;2022-12-29T02:46:58;102191.03;;;10.11;51.25
6942;BME280;3510;43.200;27.920;2022-12-29T02:49:28;102194.13;;;9.85;49.17
6942;BME280;3510;43.200;27.920;2022-12-29T02:51:59;102194.97;;;10.16;48.58
6942;BME280;3510;43.200;27.920;2022-12-29T02:54:27;102191.06;;;10.65;48.26
6942;BME280;3510;43.200;27.920;2022-12-29T02:57:14;102188.56;;;9.65;50.16
6942;BME280;3510;43.200;27.920;2022-12-29T02:59:41;102188.25;;;10.01;50.21
6942;BME280;3510;43.200;27.920;2022-12-29T03:02:22;102188.75;;;10.28;48.99
6942;BME280;3510;43.200;27.920;2022-12-29T03:07:40;102191.47;;;9.61;50.53
6942;BME280;3510;43.200;27.920;2022-12-29T03:10:14;102183.91;;;9.61;50.49
6942;BME280;3510;43.200;27.920;2022-12-29T03:12:45;102184.47;;;9.81;49.97
6942;BME280;3510;43.200;27.920;2022-12-29T03:15:32;102182.69;;;9.80;51.83
6942;BME280;3510;43.200;27.920;2022-12-29T03:18:21;102184.03;;;10.08;49.47
6942;BME280;3510;43.200;27.920;2022-12-29T03:20:49;102186.47;;;9.54;50.87
6942;BME280;3510;43.200;27.920;2022-12-29T03:23:19;102197.84;;;9.43;51.21
6942;BME280;3510;43.200;27.920;2022-12-29T03:25:47;102190.28;;;9.73;51.11
6942;BME280;3510;43.200;27.920;2022-12-29T03:28:16;102189.72;;;9.76;51.13
6942;BME280;3510;43.200;27.920;2022-12-29T03:30:45;102190.38;;;10.05;50.11
6942;BME280;3510;43.200;27.920;2022-12-29T03:33:13;102198.09;;;9.60;50.14
6942;BME280;3510;43.200;27.920;2022-12-29T03:35:42;102200.53;;;9.67;50.28
6942;BME280;3510;43.200;27.920;2022-12-29T03:38:11;102207.72;;;9.72;49.83
6942;BME280;3510;43.200;27.920;2022-12-29T03:40:41;102216.03;;;9.33;49.97
6942;BME280;3510;43.200;27.920;2022-12-29T03:43:09;102219.38;;;9.04;51.10
6942;BME280;3510;43.200;27.920;2022-12-29T03:45:37;102219.88;;;8.64;51.80
6942;BME280;3510;43.200;27.920;2022-12-29T03:48:03;102220.91;;;8.80;51.28
6942;BME280;3510;43.200;27.920;2022-12-29T03:50:30;102222.03;;;8.75;51.07
6942;BME280;3510;43.200;27.920;2022-12-29T03:52:58;102217.91;;;9.20;50.63
6942;BME280;3510;43.200;27.920;2022-12-29T03:55:25;102227.16;;;9.35;50.35
6942;BME280;3510;43.200;27.920;2022-12-29T03:57:51;102229.56;;;8.75;51.03
6942;BME280;3510;43.200;27.920;2022-12-29T04:00:18;102227.97;;;8.61;52.33
6942;BME280;3510;43.200;27.920;2022-12-29T04:02:45;102226.53;;;8.56;52.57
6942;BME280;3510;43.200;27.920;2022-12-29T04:05:12;102223.13;;;8.48;51.91
6942;BME280;3510;43.200;27.920;2022-12-29T04:07:38;102228.50;;;7.80;54.67
6942;BME280;3510;43.200;27.920;2022-12-29T04:10:07;102238.19;;;8.06;53.59
6942;BME280;3510;43.200;27.920;2022-12-29T04:12:34;102230.69;;;7.98;54.23
6942;BME280;3510;43.200;27.920;2022-12-29T04:15:01;102242.47;;;7.85;53.80
6942;BME280;3510;43.200;27.920;2022-12-29T04:17:27;102228.50;;;7.80;54.85
6942;BME280;3510;43.200;27.920;2022-12-29T04:19:54;102232.47;;;7.99;53.85
6942;BME280;3510;43.200;27.920;2022-12-29T04:22:41;102229.97;;;8.07;54.17
6942;BME280;3510;43.200;27.920;2022-12-29T04:25:10;102234.59;;;7.82;54.56
6942;BME280;3510;43.200;27.920;2022-12-29T04:27:36;102233.19;;;8.20;53.50
6942;BME280;3510;43.200;27.920;2022-12-29T04:30:03;102233.16;;;8.34;53.17
6942;BME280;3510;43.200;27.920;2022-12-29T04:32:30;102237.13;;;8.61;52.80
6942;BME280;3510;43.200;27.920;2022-12-29T04:34:57;102237.63;;;8.37;53.10
6942;BME280;3510;43.200;27.920;2022-12-29T04:37:23;102239.94;;;8.64;51.79
6942;BME280;3510;43.200;27.920;2022-12-29T04:39:50;102236.91;;;8.66;52.96
6942;BME280;3510;43.200;27.920;2022-12-29T04:42:18;102238.44;;;8.94;51.55
6942;BME280;3510;43.200;27.920;2022-12-29T04:44:44;102229.06;;;9.08;52.50
6942;BME280;3510;43.200;27.920;2022-12-29T04:47:11;102236.31;;;9.35;50.96
6942;BME280;3510;43.200;27.920;2022-12-29T04:49:38;102239.84;;;9.07;51.46
6942;BME280;3510;43.200;27.920;2022-12-29T04:52:04;102246.81;;;9.16;51.49
6942;BME280;3510;43.200;27.920;2022-12-29T04:54:33;102240.63;;;8.91;52.53
6942;BME280;3510;43.200;27.920;2022-12-29T04:57:00;102237.97;;;8.83;52.79
6942;BME280;3510;43.200;27.920;2022-12-29T04:59:28;102239.41;;;8.66;52.38
6942;BME280;3510;43.200;27.920;2022-12-29T05:01:54;102238.91;;;8.55;53.42
6942;BME280;3510;43.200;27.920;2022-12-29T05:04:21;102239.53;;;8.89;52.73
6942;BME280;3510;43.200;27.920;2022-12-29T05:06:48;102234.59;;;8.68;53.27
6942;BME280;3510;43.200;27.920;2022-12-29T05:09:14;102241.41;;;8.33;53.73
6942;BME280;3510;43.200;27.920;2022-12-29T05:11:41;102238.56;;;8.09;54.32
6942;BME280;3510;43.200;27.920;2022-12-29T05:14:07;102237.28;;;8.62;53.86
6942;BME280;3510;43.200;27.920;2022-12-29T05:16:35;102242.66;;;9.17;51.93
6942;BME280;3510;43.200;27.920;2022-12-29T05:19:02;102231.84;;;9.85;51.61
6942;BME280;3510;43.200;27.920;2022-12-29T05:21:29;102227.06;;;9.80;51.68
6942;BME280;3510;43.200;27.920;2022-12-29T05:23:55;102226.91;;;10.01;50.16
6942;BME280;3510;43.200;27.920;2022-12-29T05:26:22;102227.59;;;10.00;51.08
6942;BME280;3510;43.200;27.920;2022-12-29T05:28:49;102233.38;;;9.46;51.63
6942;BME280;3510;43.200;27.920;2022-12-29T05:31:15;102225.91;;;9.62;51.73
6942;BME280;3510;43.200;27.920;2022-12-29T05:33:43;102224.75;;;9.74;50.62
6942;BME280;3510;43.200;27.920;2022-12-29T05:36:10;102226.53;;;9.45;50.83
6942;BME280;3510;43.200;27.920;2022-12-29T05:38:39;102229.78;;;9.07;52.42
6942;BME280;3510;43.200;27.920;2022-12-29T05:41:10;102228.81;;;9.58;51.65
6942;BME280;3510;43.200;27.920;2022-12-29T05:43:52;102236.53;;;9.52;52.55
6942;BME280;3510;43.200;27.920;2022-12-29T05:46:25;102236.22;;;9.79;51.63
6942;BME280;3510;43.200;27.920;2022-12-29T05:48:56;102231.06;;;9.93;51.97
6942;BME280;3510;43.200;27.920;2022-12-29T05:51:23;102232.84;;;10.17;52.03
6942;BME280;3510;43.200;27.920;2022-12-29T05:53:49;102231.97;;;10.40;52.26
6942;BME280;3510;43.200;27.920;2022-12-29T05:56:17;102237.38;;;10.90;49.86
6942;BME280;3510;43.200;27.920;2022-12-29T05:58:45;102239.31;;;10.61;50.52
6942;BME280;3510;43.200;27.920;2022-12-29T06:01:11;102237.81;;;10.63;50.37
6942;BME280;3510;43.200;27.920;2022-12-29T06:06:15;102235.63;;;10.05;51.57
6942;BME280;3510;43.200;27.920;2022-12-29T06:08:45;102237.53;;;10.14;51.40
6942;BME280;3510;43.200;27.920;2022-12-29T06:11:12;102236.75;;;10.23;50.41
6942;BME280;3510;43.200;27.920;2022-12-29T06:13:39;102240.47;;;9.87;52.16
6942;BME280;3510;43.200;27.920;2022-12-29T06:16:06;102242.09;;;10.33;50.59
6942;BME280;3510;43.200;27.920;2022-12-29T06:18:34;102238.34;;;10.29;50.30
6942;BME280;3510;43.200;27.920;2022-12-29T06:21:02;102247.34;;;10.66;49.90
6942;BME280;3510;43.200;27.920;2022-12-29T06:23:31;102238.84;;;9.88;51.45
6942;BME280;3510;43.200;27.920;2022-12-29T06:25:58;102247.47;;;10.68;50.65
6942;BME280;3510;43.200;27.920;2022-12-29T06:28:26;102243.38;;;10.84;52.38
6942;BME280;3510;43.200;27.920;2022-12-29T06:30:53;102246.13;;;11.10;49.89
6942;BME280;3510;43.200;27.920;2022-12-29T06:33:20;102245.72;;;10.82;51.03
6942;BME280;3510;43.200;27.920;2022-12-29T06:35:47;102243.34;;;11.15;49.42
6942;BME280;3510;43.200;27.920;2022-12-29T06:38:13;102253.53;;;10.77;51.38
6942;BME280;3510;43.200;27.920;2022-12-29T06:40:43;102253.13;;;10.81;50.60
6942;BME280;3510;43.200;27.920;2022-12-29T06:43:11;102257.91;;;11.58;48.43
6942;BME280;3510;43.200;27.920;2022-12-29T06:45:38;102248.75;;;11.68;48.06
6942;BME280;3510;43.200;27.920;2022-12-29T06:48:05;102243.38;;;12.14;47.71
6942;BME280;3510;43.200;27.920;2022-12-29T06:50:32;102245.63;;;12.61;47.22
6942;BME280;3510;43.200;27.920;2022-12-29T06:52:59;102235.84;;;13.34;45.20
6942;BME280;3510;43.200;27.920;2022-12-29T06:55:25;102233.84;;;13.74;45.14
6942;BME280;3510;43.200;27.920;2022-12-29T06:57:55;102228.56;;;13.90;44.81
6942;BME280;3510;43.200;27.920;2022-12-29T07:00:22;102224.06;;;14.05;44.88
6942;BME280;3510;43.200;27.920;2022-12-29T07:02:49;102227.38;;;14.32;44.53
6942;BME280;3510;43.200;27.920;2022-12-29T07:05:15;102217.97;;;15.34;42.67
6942;BME280;3510;43.200;27.920;2022-12-29T07:07:42;102226.44;;;15.05;42.84
6942;BME280;3510;43.200;27.920;2022-12-29T07:10:09;102228.94;;;15.43;42.47
6942;BME280;3510;43.200;27.920;2022-12-29T07:12:36;102234.16;;;15.73;41.87
6942;BME280;3510;43.200;27.920;2022-12-29T07:15:04;102232.88;;;15.68;41.63
6942;BME280;3510;43.200;27.920;2022-12-29T07:17:31;102232.50;;;16.13;40.63
6942;BME280;3510;43.200;27.920;2022-12-29T07:19:58;102211.09;;;15.81;41.58
6942;BME280;3510;43.200;27.920;2022-12-29T07:22:25;102241.66;;;15.82;41.72
6942;BME280;3510;43.200;27.920;2022-12-29T07:24:52;102231.59;;;16.13;41.32
6942;BME280;3510;43.200;27.920;2022-12-29T07:27:20;102201.38;;;15.37;41.99
6942;BME280;3510;43.200;27.920;2022-12-29T07:29:47;102216.44;;;15.94;41.89
6942;BME280;3510;43.200;27.920;2022-12-29T07:32:15;102203.66;;;16.23;40.43
6942;BME280;3510;43.200;27.920;2022-12-29T07:34:42;102231.13;;;16.37;40.56
6942;BME280;3510;43.200;27.920;2022-12-29T07:37:15;102248.69;;;16.75;40.36
6942;BME280;3510;43.200;27.920;2022-12-29T07:39:42;102219.94;;;16.97;39.40
6942;BME280;3510;43.200;27.920;2022-12-29T07:42:09;102225.19;;;17.30;38.96
6942;BME280;3510;43.200;27.920;2022-12-29T07:44:36;102250.81;;;17.11;39.12
6942;BME280;3510;43.200;27.920;2022-12-29T07:47:05;102235.97;;;17.38;38.90
6942;BME280;3510;43.200;27.920;2022-12-29T07:49:33;102220.06;;;16.27;39.39
6942;BME280;3510;43.200;27.920;2022-12-29T07:52:00;102245.59;;;16.18;40.06
6942;BME280;3510;43.200;27.920;2022-12-29T07:54:27;102242.56;;;16.83;38.27
6942;BME280;3510;43.200;27.920;2022-12-29T07:56:55;102166.97;;;16.40;38.70
6942;BME280;3510;43.200;27.920;2022-12-29T07:59:23;102244.75;;;16.79;38.91
6942;BME280;3510;43.200;27.920;2022-12-29T08:01:49;102222.38;;;16.85;39.25
6942;BME280;3510;43.200;27.920;2022-12-29T08:04:16;102237.84;;;16.37;39.36
6942;BME280;3510;43.200;27.920;2022-12-29T08:06:45;102217.41;;;16.25;39.53
6942;BME280;3510;43.200;27.920;2022-12-29T08:09:12;102240.91;;;16.53;38.94
6942;BME280;3510;43.200;27.920;2022-12-29T08:11:39;102242.41;;;16.72;38.79
6942;BME280;3510;43.200;27.920;2022-12-29T08:14:20;102205.34;;;16.33;39.09
6942;BME280;3510;43.200;27.920;2022-12-29T08:17:01;102216.41;;;17.27;38.31
6942;BME280;3510;43.200;27.920;2022-12-29T08:20:00;102238.25;;;17.45;38.08
6942;BME280;3510;43.200;27.920;2022-12-29T08:35:31;102231.50;;;16.93;39.37
6942;BME280;3510;43.200;27.920;2022-12-29T08:37:58;102242.44;;;16.92;39.40
6942;BME280;3510;43.200;27.920;2022-12-29T08:40:25;102170.75;;;16.86;39.14
6942;BME280;3510;43.200;27.920;2022-12-29T08:42:52;102162.00;;;16.31;39.95
6942;BME280;3510;43.200;27.920;2022-12-29T08:45:19;102204.09;;;17.53;38.44
6942;BME280;3510;43.200;27.920;2022-12-29T08:47:48;102223.09;;;18.34;37.34
6942;BME280;3510;43.200;27.920;2022-12-29T08:50:15;102196.59;;;18.66;36.85
6942;BME280;3510;43.200;27.920;2022-12-29T08:52:46;102212.72;;;18.09;38.23
6942;BME280;3510;43.200;27.920;2022-12-29T08:55:13;102203.66;;;17.37;39.71
6942;BME280;3510;43.200;27.920;2022-12-29T08:57:41;102212.94;;;16.53;41.86
6942;BME280;3510;43.200;27.920;2022-12-29T09:00:09;102221.97;;;15.69;43.67
6942;BME280;3510;43.200;27.920;2022-12-29T09:02:37;102211.34;;;15.84;43.28
6942;BME280;3510;43.200;27.920;2022-12-29T09:05:04;102215.91;;;15.78;43.54
6942;BME280;3510;43.200;27.920;2022-12-29T09:07:43;102212.59;;;15.68;43.74
6942;BME280;3510;43.200;27.920;2022-12-29T09:10:11;102152.69;;;16.73;40.68
6942;BME280;3510;43.200;27.920;2022-12-29T09:12:38;102183.19;;;17.57;39.70
6942;BME280;3510;43.200;27.920;2022-12-29T09:15:12;102198.41;;;18.00;39.22
6942;BME280;3510;43.200;27.920;2022-12-29T09:17:40;102201.97;;;17.48;40.62
6942;BME280;3510;43.200;27.920;2022-12-29T09:20:09;102185.91;;;17.81;39.86
6942;BME280;3510;43.200;27.920;2022-12-29T09:22:37;102201.78;;;18.68;38.46
6942;BME280;3510;43.200;27.920;2022-12-29T09:25:09;102168.13;;;18.72;37.49
6942;BME280;3510;43.200;27.920;2022-12-29T09:27:37;102157.06;;;18.26;37.60
6942;BME280;3510;43.200;27.920;2022-12-29T09:30:06;102098.41;;;18.14;37.60
6942;BME280;3510;43.200;27.920;2022-12-29T09:32:34;102150.63;;;17.53;38.71
6942;BME280;3510;43.200;27.920;2022-12-29T09:35:02;102195.00;;;18.45;37.59
6942;BME280;3510;43.200;27.920;2022-12-29T09:37:30;102202.41;;;17.54;39.46
6942;BME280;3510;43.200;27.920;2022-12-29T09:39:58;102202.09;;;17.07;40.50
6942;BME280;3510;43.200;27.920;2022-12-29T09:42:30;102194.28;;;17.26;40.65
6942;BME280;3510;43.200;27.920;2022-12-29T09:45:08;102186.56;;;17.68;39.62
6942;BME280;3510;43.200;27.920;2022-12-29T09:47:45;102179.25;;;18.84;38.17
6942;BME280;3510;43.200;27.920;2022-12-29T09:50:19;102166.56;;;17.73;40.02
6942;BME280;3510;43.200;27.920;2022-12-29T09:52:55;102167.56;;;18.19;39.12
6942;BME280;3510;43.200;27.920;2022-12-29T09:55:33;102158.97;;;18.52;38.08
6942;BME280;3510;43.200;27.920;2022-12-29T09:58:05;102156.97;;;18.36;38.10
6942;BME280;3510;43.200;27.920;2022-12-29T10:00:39;102165.59;;;18.95;36.78
6942;BME280;3510;43.200;27.920;2022-12-29T10:03:14;102159.66;;;19.20;36.93
6942;BME280;3510;43.200;27.920;2022-12-29T10:05:47;102152.72;;;17.69;40.24
6942;BME280;3510;43.200;27.920;2022-12-29T10:08:25;102150.13;;;16.93;41.69
6942;BME280;3510;43.200;27.920;2022-12-29T10:16:02;102139.44;;;16.87;40.61
6942;BME280;3510;43.200;27.920;2022-12-29T10:19:03;102131.78;;;17.07;40.28
6942;BME280;3510;43.200;27.920;2022-12-29T10:21:48;102137.44;;;18.25;38.30
6942;BME280;3510;43.200;27.920;2022-12-29T10:24:22;102091.53;;;17.57;39.03
6942;BME280;3510;43.200;27.920;2022-12-29T10:26:51;102132.66;;;17.84;38.82
6942;BME280;3510;43.200;27.920;2022-12-29T10:29:20;102126.00;;;18.20;38.15
6942;BME280;3510;43.200;27.920;2022-12-29T10:31:54;102127.31;;;18.03;38.57
6942;BME280;3510;43.200;27.920;2022-12-29T10:34:25;102095.16;;;18.50;37.38
6942;BME280;3510;43.200;27.920;2022-12-29T10:36:58;102119.84;;;18.98;36.95
6942;BME280;3510;43.200;27.920;2022-12-29T10:39:30;102097.59;;;19.57;36.35
6942;BME280;3510;43.200;27.920;2022-12-29T10:42:08;102067.19;;;18.63;38.17
6942;BME280;3510;43.200;27.920;2022-12-29T10:44:36;102097.91;;;17.84;40.17
6942;BME280;3510;43.200;27.920;2022-12-29T10:47:08;102111.75;;;17.88;40.59
6942;BME280;3510;43.200;27.920;2022-12-29T10:49:41;102026.84;;;17.32;40.96
6942;BME280;3510;43.200;27.920;2022-12-29T10:52:10;102101.44;;;18.44;39.95
6942;BME280;3510;43.200;27.920;2022-12-29T10:54:45;102092.56;;;18.27;40.41
6942;BME280;3510;43.200;27.920;2022-12-29T10:57:24;102097.16;;;18.78;39.28
6942;BME280;3510;43.200;27.920;2022-12-29T10:59:52;102096.97;;;18.18;39.99
6942;BME280;3510;43.200;27.920;2022-12-29T11:02:40;102101.69;;;18.47;39.62
6942;BME280;3510;43.200;27.920;2022-12-29T11:05:13;101994.91;;;18.04;39.36
6942;BME280;3510;43.200;27.920;2022-12-29T11:07:47;102032.16;;;18.14;39.95
6942;BME280;3510;43.200;27.920;2022-12-29T11:10:17;102102.16;;;19.37;38.46
6942;BME280;3510;43.200;27.920;2022-12-29T11:12:55;102099.28;;;19.57;38.32
6942;BME280;3510;43.200;27.920;2022-12-29T11:15:41;102097.94;;;19.87;38.43
6942;BME280;3510;43.200;27.920;2022-12-29T11:18:22;102100.22;;;19.21;39.70
6942;BME280;3510;43.200;27.920;2022-12-29T11:20:51;102074.81;;;19.47;39.30
6942;BME280;3510;43.200;27.920;2022-12-29T11:23:24;102069.59;;;19.09;39.75
6942;BME280;3510;43.200;27.920;2022-12-29T11:26:14;102088.00;;;19.78;39.53
6942;BME280;3510;43.200;27.920;2022-12-29T11:28:44;102040.88;;;19.37;39.76
6942;BME280;3510;43.200;27.920;2022-12-29T11:31:16;102085.25;;;19.39;39.69
6942;BME280;3510;43.200;27.920;2022-12-29T11:33:45;102010.22;;;18.75;40.10
6942;BME280;3510;43.200;27.920;2022-12-29T11:36:16;102022.16;;;19.49;39.45
6942;BME280;3510;43.200;27.920;2022-12-29T11:38:47;102085.34;;;18.68;41.31
6942;BME280;3510;43.200;27.920;2022-12-29T11:41:21;102083.13;;;19.08;40.87
6942;BME280;3510;43.200;27.920;2022-12-29T11:43:49;102041.13;;;18.79;40.63
6942;BME280;3510;43.200;27.920;2022-12-29T11:46:20;102028.94;;;18.63;41.75
6942;BME280;3510;43.200;27.920;2022-12-29T11:48:58;102023.97;;;18.65;42.22
6942;BME280;3510;43.200;27.920;2022-12-29T11:51:29;101964.97;;;18.72;41.92
6942;BME280;3510;43.200;27.920;2022-12-29T11:54:15;102073.41;;;19.89;41.61
6942;BME280;3510;43.200;27.920;2022-12-29T11:57:09;102059.00;;;19.53;42.06
6942;BME280;3510;43.200;27.920;2022-12-29T11:59:43;101967.25;;;19.18;41.93
6942;BME280;3510;43.200;27.920;2022-12-29T12:02:39;102071.06;;;19.92;41.47
6942;BME280;3510;43.200;27.920;2022-12-29T12:05:33;102067.84;;;20.08;41.28
6942;BME280;3510;43.200;27.920;2022-12-29T12:08:11;102011.06;;;19.49;41.68
6942;BME280;3510;43.200;27.920;2022-12-29T12:10:58;101995.38;;;19.81;41.17
6942;BME280;3510;43.200;27.920;2022-12-29T12:13:57;102025.09;;;19.05;43.68
6942;BME280;3510;43.200;27.920;2022-12-29T12:25:11;101998.00;;;19.44;41.75
6942;BME280;3510;43.200;27.920;2022-12-29T12:27:51;102027.97;;;19.47;41.69
6942;BME280;3510;43.200;27.920;2022-12-29T12:30:23;101975.06;;;19.32;41.54
6942;BME280;3510;43.200;27.920;2022-12-29T12:32:56;102034.53;;;20.06;40.95
6942;BME280;3510;43.200;27.920;2022-12-29T12:35:41;101957.34;;;19.47;41.51
6942;BME280;3510;43.200;27.920;2022-12-29T12:38:23;101995.19;;;20.04;40.69
6942;BME280;3510;43.200;27.920;2022-12-29T12:41:04;102006.47;;;19.95;41.69
6942;BME280;3510;43.200;27.920;2022-12-29T12:43:41;102043.66;;;20.03;41.79
6942;BME280;3510;43.200;27.920;2022-12-29T12:51:26;101990.81;;;19.64;42.19
6942;BME280;3510;43.200;27.920;2022-12-29T12:54:09;102045.53;;;20.19;42.05
6942;BME280;3510;43.200;27.920;2022-12-29T12:56:57;102024.06;;;19.90;42.24
6942;BME280;3510;43.200;27.920;2022-12-29T13:02:15;102007.69;;;19.62;42.26
6942;BME280;3510;43.200;27.920;2022-12-29T13:04:59;102019.53;;;19.86;42.44
6942;BME280;3510;43.200;27.920;2022-12-29T13:07:40;102006.53;;;19.70;42.29
6942;BME280;3510;43.200;27.920;2022-12-29T13:10:22;102033.25;;;19.75;42.57
6942;BME280;3510;43.200;27.920;2022-12-29T13:13:05;102020.34;;;19.10;43.92
6942;BME280;3510;43.200;27.920;2022-12-29T13:15:45;101976.31;;;19.89;42.01
6942;BME280;3510;43.200;27.920;2022-12-29T13:18:21;101995.28;;;19.93;42.03
6942;BME280;3510;43.200;27.920;2022-12-29T13:20:54;102034.34;;;20.30;41.85
6942;BME280;3510;43.200;27.920;2022-12-29T13:23:26;102050.34;;;20.14;42.10
6942;BME280;3510;43.200;27.920;2022-12-29T13:26:14;102023.75;;;19.86;42.52
6942;BME280;3510;43.200;27.920;2022-12-29T13:35:30;102021.28;;;19.49;43.13
6942;BME280;3510;43.200;27.920;2022-12-29T13:38:19;102038.28;;;19.73;42.63
6942;BME280;3510;43.200;27.920;2022-12-29T13:41:04;102035.75;;;19.87;42.57
6942;BME280;3510;43.200;27.920;2022-12-29T13:43:35;102009.97;;;19.83;42.38
6942;BME280;3510;43.200;27.920;2022-12-29T13:46:23;102035.81;;;19.75;42.80
6942;BME280;3510;43.200;27.920;2022-12-29T13:48:53;102049.44;;;20.00;42.77
6942;BME280;3510;43.200;27.920;2022-12-29T13:57:34;101995.16;;;19.53;43.30
6942;BME280;3510;43.200;27.920;2022-12-29T14:00:18;102040.78;;;19.98;42.64
6942;BME280;3510;43.200;27.920;2022-12-29T14:03:24;102036.19;;;20.06;42.08
6942;BME280;3510;43.200;27.920;2022-12-29T14:06:16;102037.41;;;19.86;42.07
6942;BME280;3510;43.200;27.920;2022-12-29T14:09:01;102045.22;;;18.89;43.94
6942;BME280;3510;43.200;27.920;2022-12-29T14:11:31;102043.94;;;18.47;45.08
6942;BME280;3510;43.200;27.920;2022-12-29T14:42:42;102023.03;;;17.27;48.45
6942;BME280;3510;43.200;27.920;2022-12-29T14:45:26;102037.31;;;17.25;48.71
6942;BME280;3510;43.200;27.920;2022-12-29T14:48:32;101999.13;;;16.81;49.41
6942;BME280;3510;43.200;27.920;2022-12-29T14:51:28;102029.28;;;17.20;49.08
6942;BME280;3510;43.200;27.920;2022-12-29T14:53:56;102018.03;;;16.52;51.05
6942;BME280;3510;43.200;27.920;2022-12-29T14:56:28;102038.56;;;16.65;50.74